Morteza Vafaei

Olheiro-Chefe - Tractor
4 Dez 2028
Segunda-feira
Processo

Personalidade

Adaptabilidade (9) Ambição (6) Controvérsia (18) Lealdade (17) Pressão (6) Profissionalismo (5) Espírito Esportivo (14) Temperamento (3)

Perfil

Estilo de Treinamento Democrático
Licença Continental Pro
Determinação 6
Gestão de Pessoas 5
Motivação 10
Disciplina 5
Satisfação no Trabalho
79%
Fadiga
0%
Função Olheiro-Chefe
Salário 15.2K p/s
Contrato 14.03.2030

Desempenho

Comportamento Bom
Eficácia do Treinamento
18%
Desenvolvimento do Jogador
45%
Prevenção de Lesões
25%
Implementação Tática
20%

Eventos Recentes

Avaliou um jogador agora
Participou de uma reunião de recrutamento agora
Recomendou um alvo de transferência agora
Avaliou um jogador agora
Avaliou um jogador agora
Avaliou um jogador agora
Avaliou um jogador agora
Avaliou um jogador 7d atrás

Monitorando agora

385
Jogador Clube Status Habilidade Confiança Observado Última observação Último voto
Sebastián Driussi River Plate Ativo 130 / 129 40% 6 03.12.2028 -
Cristian Olivera Grêmio Ativo 130 / 135 40% 6 03.12.2028 -
Julián Quiñones Atlético Mineiro Ativo 152 / 155 40% 5 03.12.2028 -
Armstrong Oko-Flex Levski Ativo 140 / 124 40% 3 02.12.2028 -
Christian Kouamé Atlético Mineiro Ativo 139 / 127 40% 10 02.12.2028 -
Negueba Mirassol Ativo 123 / 124 40% 6 02.12.2028 -
Matko Miljevic Racing Club Ativo 137 / 132 40% 4 02.12.2028 -
Asier Villalibre Racing Santander Ativo 145 / 134 40% 6 02.12.2028 -
Kaye Furo Reading Ativo 121 / 135 40% 1 02.12.2028 -
Ammar Ramadan DAC Dunajska Streda Ativo 142 / 131 40% 6 30.11.2028 -
Juan Cruz de los Santos Nacional Ativo 125 / 128 40% 5 30.11.2028 -
Tomás Conechny Racing Club Ativo 127 / 131 40% 4 30.11.2028 -
Miguel Merentiel Qarabag Ativo 132 / 132 40% 2 29.11.2028 -
Lucas Villalba Botafogo Ativo 130 / 131 40% 5 28.11.2028 -
Bruno Barticciotto Talleres Ativo 130 / 132 40% 4 28.11.2028 -
Brenner Vasco da Gama Ativo 135 / 135 40% 2 27.11.2028 -
Mao Hosoya Santos Ativo 139 / 141 40% 2 27.11.2028 -
Fer Niño Elche Ativo 150 / 137 40% 2 26.11.2028 -
Youssef En-Nesyri Bahia Ativo 144 / 144 40% 2 26.11.2028 -
Alex Luna Instituto Ativo 136 / 135 40% 7 25.11.2028 -
Hwang Hee-Chan Wolverhampton Ativo 137 / 143 40% 2 25.11.2028 -
Luca Langoni Columbus Crew Ativo 144 / 142 40% 7 25.11.2028 -
Uriel Antuna Dinamo Moscow Ativo 146 / 128 40% 2 25.11.2028 -
Matías Abaldo Ferencvaros Ativo 127 / 141 40% 2 25.11.2028 -
Abduvohid Ne'matov Nasaf Ativo 140 / 132 40% 1 25.11.2028 -
Facundo Vila Estudiantes Ativo 108 / 118 40% 1 25.11.2028 -
Kevin Chacón Alianza Petrolera Ativo 106 / 105 40% 1 25.11.2028 -
Renato Júnior Dinamo Tbilisi Ativo 125 / 132 40% 4 22.11.2028 -
Santiago Solari Racing Club Ativo 128 / 127 40% 5 21.11.2028 -
Ángel Maciel Tacuarembo Ativo 109 / 116 40% 2 21.11.2028 -
Antonio Carrera Falkenberg Ativo 104 / 110 40% 2 21.11.2028 -
Oliver Petersen Odd Ativo 138 / 135 40% 1 21.11.2028 -
Vitinho Internacional Ativo 130 / 132 40% 5 18.11.2028 -
Jaminton Campaz Rosario Central Ativo 133 / 128 40% 2 18.11.2028 -
Calebe Fortaleza Ativo 130 / 130 40% 4 18.11.2028 -
Adam Armstrong Leyton Orient Ativo 145 / 141 40% 2 18.11.2028 -
Oli McBurnie Hull City Ativo 148 / 144 40% 5 17.11.2028 -
Callum Lang Preston Ativo 121 / 121 40% 1 17.11.2028 -
Bruno Leyes Godoy Cruz Ativo 130 / 123 40% 3 15.11.2028 -
Alexis Cuello San Lorenzo Ativo 133 / 131 40% 4 15.11.2028 -
Jonathan De Irastorza Independiente Ativo 131 / 134 40% 3 15.11.2028 -
Yoane Wissa Newcastle United Ativo 141 / 138 40% 4 15.11.2028 -
Allahyar Sayyadmanesh Esteghlal Ativo 128 / 135 40% 3 15.11.2028 -
Matías Zaracho Racing Club Ativo 123 / 123 40% 4 13.11.2028 -
Alan Lescano Argentinos Juniors Ativo 141 / 135 40% 1 13.11.2028 -
Facundo Colidio Vasco da Gama Ativo 132 / 125 40% 2 12.11.2028 -
Aidomo Emakhu Oxford United Ativo 126 / 139 40% 3 10.11.2028 -
Matheuzinho Corinthians Ativo 131 / 133 40% 2 09.11.2028 -
Vitinho Botafogo Ativo 145 / 137 40% 1 09.11.2028 -
Franco Ibarra Rosario Central Ativo 136 / 135 40% 1 09.11.2028 -
Mohammad Mohebi Hajduk Split Ativo 123 / 129 40% 1 08.11.2028 -
Lautaro Giaccone Argentinos Juniors Ativo 130 / 129 40% 1 08.11.2028 -
Lucas Piton Vasco da Gama Ativo 144 / 132 40% 2 05.11.2028 -
Eduardo Lozano Botafogo Ativo 147 / 144 40% 3 05.11.2028 -
Matías Arezo Penarol Ativo 130 / 128 40% 3 05.11.2028 -
Gonzalo Montiel River Plate Ativo 137 / 127 40% 1 05.11.2028 -
Erick Pulga Bahia Ativo 133 / 138 40% 2 04.11.2028 -
Gonzalo Plata Nacional Ativo 147 / 140 40% 3 01.11.2028 -
Adam Idah Swansea City Ativo 143 / 134 40% 3 31.10.2028 -
Kasper Høgh River Plate Ativo 131 / 135 40% 2 30.10.2028 -
José Manuel López Palmeiras Ativo 137 / 141 40% 3 28.10.2028 -
Emil Breivik Molde Ativo 134 / 143 40% 2 27.10.2028 -
Santiago Ramos Mingo Bahia Ativo 134 / 133 40% 2 27.10.2028 -
Matheus Henrique Cruzeiro Ativo 138 / 140 40% 1 27.10.2028 -
Arthur Cabral Botafogo Ativo 130 / 134 40% 5 23.10.2028 -
Jens Petter Hauge Bodo/Glimt Ativo 151 / 139 40% 2 22.10.2028 -
Toni Fruk Talleres Ativo 141 / 134 40% 7 22.10.2028 -
Xavier Biscayzacú Penarol Ativo 129 / 133 40% 5 22.10.2028 -
Franco Orozco Lanús Ativo 131 / 132 40% 2 22.10.2028 -
Juan Ignacio Nardoni Grêmio Ativo 136 / 137 40% 3 20.10.2028 -
Santiago Sosa Vasco da Gama Ativo 126 / 131 40% 1 20.10.2028 -
Guilherme Arana Fluminense Ativo 133 / 139 40% 2 18.10.2028 -
Caio Alexandre Bahia Ativo 132 / 136 40% 1 18.10.2028 -
Tosin Adarabioyo Grêmio Ativo 149 / 140 40% 1 18.10.2028 -
Matías Galarza Talleres Ativo 136 / 133 40% 2 17.10.2028 -
Rico Henry River Plate Ativo 143 / 147 40% 2 17.10.2028 -
Fredrik Bjørkan Bodo/Glimt Ativo 121 / 123 40% 1 15.10.2028 -
Alan Rodríguez Internacional Ativo 139 / 129 40% 1 15.10.2028 -
Brian Aguirre Boca Juniors Ativo 130 / 130 40% 2 14.10.2028 -
Renan Lodi Atlético Mineiro Ativo 135 / 143 40% 2 13.10.2028 -
Agustín Giay Palmeiras Ativo 131 / 142 40% 1 13.10.2028 -
Alexandro Bernabei Internacional Ativo 137 / 137 40% 3 12.10.2028 -
Gustavo Marques Bragantino Ativo 140 / 137 40% 1 12.10.2028 -
Erik Botheim Viking Ativo 120 / 126 40% 3 11.10.2028 -
Kayne Ramsay Atlético Mineiro Ativo 138 / 131 40% 1 11.10.2028 -
Ephron Mason-Clark Coventry City Ativo 148 / 144 40% 1 11.10.2028 -
Aarón Molinas Defensa y Justicia Ativo 132 / 128 40% 4 08.10.2028 -
Aune Heggebø West Bromwich Albion Ativo 126 / 141 40% 4 08.10.2028 -
Marcos López Gimnasia La Plata Ativo 127 / 130 40% 4 08.10.2028 -
Tashreeq Matthews Bloemfontein Celtic Ativo 119 / 123 40% 1 08.10.2028 -
Ali Ishaku Abia Warriors Ativo 97 / 109 40% 1 06.10.2028 -
Antonio Galeano Remo Stars Ativo 144 / 125 40% 4 04.10.2028 -
Joaquín Gho Argentinos Juniors Ativo 132 / 130 40% 2 04.10.2028 -
Ignacio Perruzzi San Lorenzo Ativo 126 / 125 40% 2 03.10.2028 -
Lyle Foster Rosenborg Ativo 147 / 137 40% 3 02.10.2028 -
John Kennedy Corinthians Ativo 134 / 128 40% 2 02.10.2028 -
Isidro Pitta Bragantino Ativo 126 / 135 40% 2 30.09.2028 -
Haji Wright Coventry City Ativo 134 / 145 40% 1 28.09.2028 -
Dor Turgeman Spartak Moscow Ativo 146 / 136 40% 1 28.09.2028 -
Ferreirinha Fluminense Ativo 127 / 131 40% 1 24.09.2028 -
Martinelli Fluminense Ativo 140 / 141 40% 1 23.09.2028 -
Juan Carlos Portillo River Plate Ativo 124 / 135 40% 1 23.09.2028 -
Morgan Guilavogui Real Salt Lake Ativo 123 / 122 40% 1 16.09.2028 -
Pep Biel Charlotte Football Club Ativo 117 / 130 40% 1 15.09.2028 -
Niklas Dorsch Toronto FC Ativo 123 / 124 40% 2 14.09.2028 -
Louis Munteanu Charlotte Football Club Ativo 144 / 138 40% 1 14.09.2028 -
Marcos Antonio Sport Recife Ativo 150 / 146 40% 1 14.09.2028 -
Sondre Auklend Bodo/Glimt Ativo 135 / 143 40% 1 14.09.2028 -
Jesus Ferreira Seattle Sounders Ativo 133 / 135 40% 2 12.09.2028 -
Josh Sargent Toronto FC Ativo 132 / 121 40% 1 10.09.2028 -
Santiago Rodríguez Columbus Crew Ativo 128 / 127 40% 1 09.09.2028 -
Pavel Bucha Portland Timbers Ativo 123 / 123 40% 1 09.09.2028 -
Quinn Sullivan Philadelphia Union Ativo 126 / 135 40% 1 09.09.2028 -
Agustín Anello Philadelphia Union Ativo 117 / 137 40% 1 06.09.2028 -
Facundo Farías Estudiantes Ativo 122 / 127 40% 1 05.09.2028 -
Daniel Karlsbakk Sarpsborg 08 Ativo 120 / 119 40% 1 05.09.2028 -
Kévin Denkey FC Cincinnati Ativo 131 / 131 40% 1 04.09.2028 -
Mauricio Amaro Atlanta United FC Ativo 134 / 132 40% 1 02.09.2028 -
Felipe Peña Biafore Lanús Ativo 124 / 130 40% 1 02.09.2028 -
Henrik Heggheim Viking Ativo 119 / 122 40% 2 01.09.2028 -
Damián Fernández Defensa y Justicia Ativo 138 / 129 40% 1 31.08.2028 -
Eduard Löwen San Jose Earthquakes Ativo 117 / 132 40% 1 31.08.2028 -
Juan Pablo Freytes Fluminense Ativo 135 / 129 40% 1 29.08.2028 -
Brenner Vasco da Gama Perdido 126 / 131 40% 1 28.08.2028 -
Lucas Sanabria LA Galaxy Ativo 127 / 130 40% 1 27.08.2028 -
Miles Robinson FC Cincinnati Ativo 137 / 124 40% 1 27.08.2028 -
Marius Marin Al Nasr Ativo 135 / 133 40% 1 26.08.2028 -
Odin Bjørtuft Bodo/Glimt Ativo 119 / 131 40% 1 26.08.2028 -
Adam Gnezda Čerin Al Wahda Ativo 140 / 133 40% 1 25.08.2028 -
Igor Serrote Al Ain Ativo 130 / 125 40% 2 24.08.2028 -
Seyed Mehdi Hosseini Esteghlal Perdido 102 / 99 62% 1 21.08.2028 Aprovar
Emmanuel Boateng Hapoel Tel Aviv Perdido 147 / 118 40% 1 21.08.2028 -
Leonardo Campana New England Revolution Ativo 125 / 128 40% 1 21.08.2028 -
Sandi Lovrić Juve Stabia Ativo 139 / 150 40% 1 19.08.2028 -
Tommaso Pobega Bologna Ativo 149 / 139 40% 1 19.08.2028 -
Simone Santoro Modena Ativo 124 / 138 40% 1 18.08.2028 -
Rolando Mandragora Torino Ativo 143 / 141 40% 1 18.08.2028 -
Alieu Njie Torino Ativo 137 / 147 40% 2 17.08.2028 -
Mehdi Dorval Catanzaro Ativo 152 / 133 40% 1 17.08.2028 -
Marco Curto Empoli Ativo 141 / 119 40% 1 17.08.2028 -
Gonzalo Plata Nacional Perdido 134 / 136 40% 1 16.08.2028 -
Manuel De Luca Cremonese Ativo 145 / 130 40% 1 16.08.2028 -
Sebastiano Luperto Cremonese Ativo 136 / 140 40% 1 16.08.2028 -
Matteo Prati Cagliari Ativo 145 / 137 40% 1 16.08.2028 -
Rodin Quiñónes Esteghlal Ativo 105 / 118 62% 1 14.08.2028 Aprovar
Albert Guðmundsson Fiorentina Ativo 147 / 151 40% 1 14.08.2028 -
Keinan Davis Udinese Ativo 131 / 137 40% 1 14.08.2028 -
Idrissa Touré Monza Ativo 145 / 144 40% 1 12.08.2028 -
Anthony Oyono Frosinone Ativo 136 / 137 40% 1 12.08.2028 -
Odel Offiah Shrewsbury Town Ativo 130 / 135 40% 6 09.08.2028 -
Amankwah Forson Wycombe Wanderers Ativo 136 / 141 40% 1 08.08.2028 -
Kike Pérez Venezia Ativo 133 / 136 40% 1 08.08.2028 -
Filippo Distefano Empoli Perdido 122 / 132 40% 1 07.08.2028 -
Matheus Davó Maccabi Netanya Ativo 117 / 120 40% 1 07.08.2028 -
Che Adams Torino Perdido 138 / 142 40% 2 01.08.2028 -
Brandon Thomas-Asante Blackpool Ativo 119 / 119 40% 3 31.07.2028 -
Andrea Adorante Venezia Ativo 137 / 127 40% 1 31.07.2028 -
Gonzalo Plata Nacional Perdido 138 / 143 40% 1 25.07.2028 -
Eli Junior Kroupi Bournemouth Ativo 152 / 155 40% 2 16.07.2028 -
Gonzalo Plata Nacional Perdido 150 / 134 40% 1 16.07.2028 -
M'Bala Nzola Cagliari Ativo 125 / 141 40% 1 12.07.2028 -
Richard Koné Queens Park Rangers Ativo 123 / 127 40% 1 11.07.2028 -
Andri Guðjohnsen Blackburn Rovers Ativo 143 / 123 40% 2 09.07.2028 -
Zito Luvumbo Cagliari Ativo 151 / 127 40% 2 08.07.2028 -
Patrick Agyemang Derby County Ativo 145 / 137 40% 1 06.07.2028 -
Lorent Tolaj Plymouth Argyle Ativo 127 / 129 40% 2 04.07.2028 -
Iván Sánchez Sepahan Perdido 112 / 123 62% 1 03.07.2028 -
Yassir Zabiri Stade Rennais Ativo 143 / 137 40% 1 03.07.2028 -
Callum O'Hare Sheffield United Ativo 134 / 137 40% 2 02.07.2028 -
Daryl Dike West Bromwich Albion Ativo 145 / 130 40% 1 02.07.2028 -
Zeidane Inoussa Swansea City Ativo 128 / 136 40% 1 30.06.2028 -
Harry Wilson Leeds United Ativo 148 / 151 40% 1 30.06.2028 -
Lucas Pires Wolverhampton Ativo 141 / 136 40% 2 17.06.2028 -
Ronnie Edwards Queens Park Rangers Ativo 129 / 142 40% 1 17.06.2028 -
Evander Wolverhampton Ativo 142 / 147 40% 1 16.06.2028 -
James Justin Leeds United Ativo 151 / 146 40% 3 15.06.2028 -
Calvin Ramsay Bristol Rovers Ativo 115 / 136 40% 3 15.06.2028 -
Sander Berge Derby County Ativo 150 / 142 40% 5 12.06.2028 -
Jhon Solís Birmingham Ativo 135 / 140 40% 2 02.06.2028 -
Charlie Whitaker Tranmere Rovers Ativo 116 / 115 40% 1 02.06.2028 -
Derry Murkin Derby County Ativo 144 / 126 40% 5 01.06.2028 -
Alfie Doughty Millwall Ativo 141 / 132 40% 2 01.06.2028 -
Ethan Pye Stockport County Ativo 133 / 133 40% 2 29.05.2028 -
Japhet Tanganga Sheffield United Ativo 136 / 135 40% 4 29.05.2028 -
Terry Devlin Portsmouth Ativo 121 / 118 40% 1 26.05.2028 -
Will Fish Cardiff City Ativo 142 / 121 40% 2 23.05.2028 -
Dale Taylor Blackpool Ativo 121 / 120 40% 1 22.05.2028 -
Joe Rodon Blackburn Rovers Ativo 136 / 137 40% 5 16.05.2028 -
Bafodé Diakité Plymouth Argyle Ativo 137 / 153 40% 6 15.05.2028 -
Nicolas Madsen Queens Park Rangers Ativo 133 / 137 40% 2 15.05.2028 -
Sam Greenwood Bristol City Rejeitado 118 / 134 40% 4 14.05.2028 Rejeitar
Kyle John Port Vale Ativo 103 / 113 40% 1 14.05.2028 -
Aaron Collins Milton Keynes Dons Ativo 120 / 128 40% 1 14.05.2028 -
Max Bird Birmingham Ativo 148 / 132 40% 2 12.05.2028 -
Justin Devenny Stoke City Rejeitado 140 / 137 40% 1 12.05.2028 Mais informações
Reuell Walters Luton Town Ativo 111 / 124 40% 2 09.05.2028 -
Vitaly Janelt Derby County Ativo 160 / 150 40% 1 08.05.2028 -
Ben Sheaf Wrexham Ativo 138 / 128 40% 1 04.05.2028 -
Pelle Mattsson Norwich City Ativo 125 / 139 40% 2 02.05.2028 -
Callum Brittain Middlesbrough Ativo 144 / 138 40% 6 01.05.2028 -
Kenny Tete Fulham Ativo 143 / 145 40% 4 29.04.2028 -
Arthur Sales Maritzburg United Ativo 121 / 115 40% 2 28.04.2028 -
Malik Mothersille Stockport County Ativo 129 / 121 40% 3 28.04.2028 -
Thierry Small Preston Ativo 133 / 135 40% 4 24.04.2028 -
Lee Buchanan Sheffield Wednesday Ativo 134 / 130 40% 2 22.04.2028 -
Yerson Mosquera Wolverhampton Ativo 158 / 137 40% 4 21.04.2028 -
Timothy Castagne Stoke City Ativo 157 / 134 40% 2 20.04.2028 -
Max Conway Bolton Wanderers Ativo 117 / 132 40% 2 17.04.2028 -
Dion Sanderson AFC Wimbledon Ativo 138 / 128 40% 1 13.04.2028 -
Mohamed Simakan Persepolis Ativo 144 / 147 40% 2 12.04.2028 -
Charlie Kelman Barnsley Perdido 124 / 109 40% 1 11.04.2028 -
Max Arfsten Middlesbrough Ativo 138 / 131 40% 2 09.04.2028 -
Dennis Cirkin Queens Park Rangers Ativo 123 / 138 40% 1 08.04.2028 -
Ollie Watkins Al-Hilal Ativo 164 / 150 40% 2 05.04.2028 -
Marc Bola Watford Ativo 135 / 120 40% 1 05.04.2028 -
Leandro Antunes Al-Riyadh Ativo 117 / 123 40% 1 05.04.2028 -
Lamare Bogarde Reading Ativo 150 / 141 40% 1 02.04.2028 -
Manfred Ugalde Spartak Moscow Ativo 151 / 135 40% 2 27.03.2028 -
Eivind Helland AC Milan Ativo 132 / 142 40% 1 24.03.2028 -
Josh Nichols Oldham Athletic Ativo 135 / 134 40% 1 23.03.2028 -
Bobby Thomas Grimsby Town Ativo 143 / 130 40% 1 22.03.2028 -
Daichi Kamada Luton Town Ativo 152 / 151 40% 4 20.03.2028 -
Kristoffer Lund Birmingham Ativo 136 / 124 40% 1 18.03.2028 -
Adrià Altimira Deportivo La Coruña Ativo 133 / 143 40% 1 16.03.2028 -
Mattia Felici Cagliari Ativo 146 / 144 40% 1 15.03.2028 -
Rocco Vata Watford Ativo 113 / 117 40% 1 14.03.2028 -
Luca Williams-Barnett Walsall Ativo 108 / 133 40% 1 14.03.2028 -
Tim Iroegbunam Peterborough United Ativo 147 / 134 40% 1 09.03.2028 -
Will Hughes Bloemfontein Celtic Ativo 123 / 145 40% 3 07.03.2028 -
Alfie Gilchrist West Bromwich Albion Ativo 146 / 138 40% 1 04.03.2028 -
Jordan Lotomba Bloemfontein Celtic Ativo 145 / 135 40% 1 03.03.2028 -
Igor Burnley Ativo 161 / 138 40% 2 26.02.2028 -
Hidemasa Morita Hull City Ativo 148 / 147 40% 1 20.02.2028 -
Gedson Fernandes Spartak Moscow Ativo 131 / 147 40% 1 18.02.2028 -
Lewis Bate Stockport County Ativo 135 / 126 40% 1 14.02.2028 -
Timur Suleimanov Nizhniy Novgorod Ativo 106 / 121 40% 1 14.02.2028 -
Victor Torp Bristol Rovers Ativo 147 / 136 40% 1 03.02.2028 -
Alan García Wanderers Ativo 120 / 110 40% 1 10.01.2028 -
Joaquín García Vélez Ativo 121 / 130 40% 1 10.01.2028 -
Hossein Sadeghi Ativo 107 / 100 55% 1 07.01.2028 -
Saeid Sadeghi Ittihad Rejeitado 109 / 109 67% 1 01.01.2028 Rejeitar
Tiago Palacios Estudiantes Ativo 126 / 125 40% 1 30.12.2027 -
Oscar Garrido Mitre Ativo 121 / 111 40% 3 28.12.2027 -
Santiago Montiel Independiente Ativo 135 / 134 40% 6 27.12.2027 -
Iñaki Larthirigoyen San Telmo Ativo 115 / 116 40% 10 25.12.2027 -
Victor Hernandez Santa Fe Ativo 125 / 125 40% 3 24.12.2027 -
Franco Zapiola Platense Rejeitado 137 / 127 40% 1 23.12.2027 Mais informações
Patricio Moyano Defensores Ativo 128 / 120 40% 6 22.12.2027 -
Jhonatan Candia Barracas Central Ativo 119 / 123 40% 3 22.12.2027 -
Sebastián Jaurena San Martín SJ Ativo 117 / 113 40% 2 19.12.2027 -
Gastón Togni Defensa y Justicia Ativo 121 / 129 40% 2 19.12.2027 -
Nicolás Laméndola Atlético Tucumán Ativo 126 / 115 40% 1 18.12.2027 -
Martín Campos Ferro Carril Oeste Ativo 118 / 120 40% 2 14.12.2027 -
Manuel Mónaco Sarmiento Ativo 115 / 118 40% 5 11.12.2027 -
Leandro Suhr Boston River Ativo 110 / 122 40% 2 10.12.2027 -
Hernán Toledo Albion Ativo 124 / 115 40% 3 09.12.2027 -
Alejo Dramisino Atlanta Ativo 124 / 115 40% 3 06.12.2027 -
Esteban Obregón Montevideo City Torque Ativo 126 / 115 40% 3 04.12.2027 -
Lucas Souto Defensa y Justicia Ativo 118 / 124 40% 2 04.12.2027 -
Santiago Rosales Mitre Ativo 117 / 112 40% 2 03.12.2027 -
Lucas Carrizo Newell's Old Boys Ativo 136 / 122 40% 1 03.12.2027 -
Nicolás Retamar Ferro Carril Oeste Ativo 127 / 119 40% 4 01.12.2027 -
Alejo Cruz Juventud Ativo 132 / 116 40% 3 29.11.2027 -
Juan Bisanz Huracán Ativo 136 / 132 40% 4 26.11.2027 -
Jherson Mosquera Newell's Old Boys Ativo 127 / 123 40% 1 25.11.2027 -
Adrian Pereira Rosenborg Ativo 119 / 128 40% 1 25.11.2027 -
Sebastián Medina Tigre Ativo 116 / 116 40% 1 23.11.2027 -
Fabricio Corbalán Gimnasia La Plata Ativo 115 / 127 40% 1 22.11.2027 -
Santiago González Tigre Ativo 130 / 126 40% 1 21.11.2027 -
Rodrigo Herrera Newell's Old Boys Ativo 118 / 121 40% 1 17.11.2027 -
Emanuel Mammana Vélez Ativo 140 / 133 40% 1 16.11.2027 -
Hernán de la Fuente Instituto Ativo 115 / 124 40% 1 12.11.2027 -
Juan Infante Atlético Tucumán Ativo 123 / 117 40% 1 12.11.2027 -
Giorgi Arabidze Torpedo Kutaisi Ativo 102 / 116 40% 4 11.11.2027 -
Gastón Lodico Racing Club Ativo 121 / 122 40% 1 11.11.2027 -
Augusto Schott Talleres Ativo 134 / 129 40% 1 08.11.2027 -
Imran Oulad Omar Dinamo Batumi Ativo 133 / 126 40% 1 06.11.2027 -
Jonás Acevedo Instituto Ativo 129 / 117 40% 1 27.10.2027 -
Jonás Luna Wanderers Ativo 120 / 127 40% 1 23.10.2027 -
Joel Ezra Enyimba Ativo 97 / 106 40% 1 17.10.2027 -
Marcelino Moreno Lanús Ativo 136 / 132 40% 1 14.10.2027 -
Luis Rodriguez Valur Ativo 133 / 117 40% 1 08.10.2027 -
Diego García Danubio Ativo 128 / 120 40% 2 07.10.2027 -
Luciano Boggio Nacional Ativo 122 / 125 40% 3 06.10.2027 -
Rodrigo González Mitre Ativo 108 / 114 40% 1 04.10.2027 -
Ignacio Fernández Boston River Ativo 100 / 97 40% 1 04.10.2027 -
Matías Canedo Rampla Juniors Ativo 86 / 95 40% 1 04.10.2027 -
Federico Bisanz Atlanta Ativo 107 / 112 40% 1 28.09.2027 -
Ramiro Peralta Juventud Ativo 128 / 115 40% 1 15.09.2027 -
Franco Nicola Liverpool Montevideo Ativo 127 / 124 40% 1 30.08.2027 -
Joel Bagan Cardiff City Ativo 134 / 125 40% 1 09.08.2027 -
Idris El Mizouni Leyton Orient Ativo 138 / 123 40% 1 09.08.2027 -
Ali Ahmed Norwich City Ativo 141 / 117 40% 1 06.08.2027 -
Daniel Kyerewaa Reading Ativo 134 / 123 40% 2 03.08.2027 -
Alex Robertson Cardiff City Ativo 139 / 115 40% 1 03.08.2027 -
Jacques Ekomié Wrexham Ativo 142 / 125 40% 1 02.08.2027 -
Andrea Bertoncini Triestina Ativo 81 / 88 40% 1 01.07.2027 -
Nestory Irankunda Watford Ativo 113 / 127 40% 1 03.06.2027 -
Caleb Yirenkyi Coventry City Ativo 136 / 130 40% 1 03.06.2027 -
Alex Villa González Atlético Tucumán Ativo 79 / 94 40% 3 30.05.2027 -
Román Colo All Boys Ativo 82 / 89 40% 2 26.05.2027 -
Roberto Moreno Cruz Azul Ativo 74 / 88 40% 1 25.05.2027 -
Mathías Aguiar Montevideo City Torque Ativo 71 / 95 40% 1 25.05.2027 -
Agustín Nogueira Barracas Central Ativo 81 / 95 40% 2 22.05.2027 -
Riley Owen Stevenage Ativo 96 / 110 40% 1 22.05.2027 -
Tommaso Cecotti Carpi Ativo 80 / 98 40% 1 22.05.2027 -
Kiani Inge Groningen Ativo 91 / 105 40% 3 15.05.2027 -
Juan Manuel Centurión Independiente Ativo 93 / 99 40% 2 15.05.2027 -
Bailey Hall Liverpool Ativo 70 / 83 40% 1 15.05.2027 -
Tiago Freitas Benfica Ativo 121 / 105 40% 1 13.05.2027 -
Joaquín Sevegnani Colegiales Ativo 93 / 97 40% 2 12.05.2027 -
Jakub Badžgoň MSK Zilina Rejeitado 119 / 110 40% 4 12.05.2027 Rejeitar
Josh Acheampong Everton Ativo 154 / 138 40% 1 09.05.2027 -
Samuele di Benedetto Twente Ativo 113 / 120 40% 1 09.05.2027 -
Joaquín Giudice Platense Ativo 84 / 97 40% 1 08.05.2027 -
Gonçalo Ribeiro Porto Ativo 83 / 109 40% 5 06.05.2027 -
Felipe Igón Racing Club Ativo 87 / 103 40% 5 04.05.2027 -
Julián Alcar Banfield Ativo 89 / 92 40% 2 03.05.2027 -
Grant Leveille DC United Ativo 70 / 103 40% 1 01.05.2027 -
Jeifer Nontoa Banfield Ativo 80 / 90 40% 2 30.04.2027 -
Agustín Ayala Gimnasia La Plata Ativo 80 / 96 40% 1 28.04.2027 -
Luke Campbell Bolton Wanderers Ativo 102 / 103 40% 1 25.04.2027 -
Dante Jadli Temperley Ativo 74 / 86 40% 1 23.04.2027 -
Carlos Hernández Deportivo Riestra Ativo 77 / 94 40% 2 22.04.2027 -
Joel Abregu Temperley Ativo 69 / 87 40% 1 19.04.2027 -
Esteban Ojeda Estudiantes Ativo 78 / 81 40% 1 18.04.2027 -
Luca Martelli Forli Ativo 84 / 89 40% 1 16.04.2027 -
Federico Bonilla River Plate Ativo 86 / 98 40% 2 09.04.2027 -
Edwin Asamoah Berekum Chelsea Ativo 76 / 77 40% 1 09.04.2027 -
James Dornelly Peterborough United Ativo 97 / 118 40% 1 07.04.2027 -
Afriyie Sulemana WAFA Ativo 78 / 102 40% 1 06.04.2027 -
Jeremías Robledo Acosta Newell's Old Boys Ativo 93 / 95 40% 3 03.04.2027 -
Patricio Flores Defensa y Justicia Ativo 77 / 96 40% 1 03.04.2027 -
Santiago Direnna Miramar Misiones Ativo 84 / 78 40% 1 01.04.2027 -
Lisandro Musso Central Córdoba SdE Ativo 88 / 92 40% 1 31.03.2027 -
Ikenna Nkwazema FC Diarra Ativo 66 / 77 40% 1 25.03.2027 -
Duran Ferree San Diego Football Club Ativo 108 / 95 40% 2 18.03.2027 -
Franco Capponi Aldosivi Ativo 83 / 102 40% 2 17.03.2027 -
Stefano Condino All Boys Ativo 79 / 87 40% 1 11.03.2027 -
Leonardo Sosa Rosario Central Ativo 94 / 105 40% 2 09.03.2027 -
Emanuel Bonda Argentinos Juniors Ativo 81 / 98 40% 1 09.03.2027 -
Thiago Nahuel Independiente Ativo 94 / 86 40% 2 08.03.2027 -
David Ozoh Derby County Ativo 109 / 137 40% 2 06.03.2027 -
Teboho Mokoena Black Aces Ativo 69 / 84 40% 1 03.03.2027 -
Jhon Azcárate Slask Ativo 67 / 92 40% 1 01.01.2027 -
Bongani Zungu Ajax Cape Town Ativo 122 / 130 40% 3 28.12.2026 -
Naphtali Mokoena Bloemfontein Celtic Ativo 98 / 88 40% 1 28.12.2026 -
Reda Khadra Qarabag Ativo 143 / 128 40% 1 28.12.2026 -
Zoltan Kleinheisler Haladas Ativo 94 / 103 40% 3 25.12.2026 -
Santiago Gutiérrez Puskas Akademia Ativo 83 / 101 40% 1 24.12.2026 -
Andy Ezekiel Petrojet Ativo 78 / 105 40% 1 23.12.2026 -
Ignacio Abarza Huracán Ativo 93 / 98 40% 2 22.12.2026 -
Maxim Shichanin Zenit Ativo 97 / 83 40% 3 18.12.2026 -
Guilherme Pires Sporting CP Ativo 80 / 98 40% 2 17.12.2026 -
Favour Bala Plateau United Ativo 80 / 103 40% 1 16.12.2026 -
Álex Centelles Levski Ativo 131 / 119 40% 2 15.12.2026 -
Sergey Pinyaev Lokomotiv Moscow Ativo 118 / 125 40% 1 15.12.2026 -
Sabino González Sarmiento Ativo 75 / 90 40% 3 10.12.2026 -
Jerónimo Gutiérrez Independiente Rivadavia Ativo 84 / 92 40% 1 05.12.2026 -
Ehsan Shojaei Gostaresh Foulad Ativo 78 / 93 40% 1 02.12.2026 -
Oswin Appollis Orlando Pirates Ativo 109 / 130 40% 1 25.11.2026 -
Franco Yennerich Talleres Ativo 80 / 87 40% 1 25.11.2026 -
Tomás Chetelain Estudiantes Ativo 92 / 87 40% 1 24.11.2026 -
Ayoub Akabou Ceuta Ativo 98 / 85 40% 2 20.11.2026 -
Gerardo Díaz San Martín SJ Ativo 86 / 99 40% 1 19.11.2026 -
Joel Abraham Boston River Ativo 77 / 91 40% 2 16.11.2026 -
Fabricio Díaz San Lorenzo Ativo 91 / 100 40% 1 15.11.2026 -
Ashkan Rashedi Zob Ahan Ativo 105 / 93 40% 2 06.11.2026 -
Ole-Didrik Blomberg Bodo/Glimt Ativo 135 / 127 40% 1 29.10.2026 -
Mohammad Mehdi Mohebi Persepolis Perdido 129 / 118 40% 2 26.10.2026 -
Martín D'Aurizio Huracán Ativo 94 / 95 40% 1 22.10.2026 -
Kamil Dudek Burton Albion Ativo 100 / 85 40% 1 22.10.2026 -
Tyrhys Dolan Espanyol Ativo 131 / 143 40% 1 22.10.2026 -
Aria Yousefi Sepahan Ativo 123 / 114 40% 1 21.10.2026 -
Emiliano Zacca Deportivo Riestra Ativo 85 / 100 40% 1 15.10.2026 -
Martín Díaz Lanús Ativo 88 / 84 40% 1 14.10.2026 -
Nikita Krivtsov Krasnodar Ativo 126 / 123 40% 1 12.10.2026 -
Bradley Zwane SuperSport United Ativo 113 / 123 40% 1 08.10.2026 -
Kein Sato FC Tokyo Ativo 146 / 128 40% 1 08.10.2026 -
Agustín Martínez Cádiz Ativo 98 / 88 40% 1 08.10.2026 -
Agustín Albrini Independiente Rivadavia Ativo 82 / 95 40% 2 02.10.2026 -
Kayne Rizvanovich Minnesota United FC Ativo 92 / 85 40% 1 22.09.2026 -
Saeid Saharkhizan Sepahan Perdido 102 / 119 40% 1 25.08.2026 -
Rouzbeh Cheshmi Esteghlal Ativo 130 / 122 51% 1 24.08.2026 -
Joe Gelhardt Hull City Ativo 143 / 124 40% 1 01.08.2026 -